Peotone Weather
Station Historical Data
Daily Summary for March 20, 2017 Units:  Both    English   Metric
« Previous Day
Next Day »
Daily Weekly Monthly Yearly Custom
  High: Low: Average:
Temperature: 55.0 °F /  12.8 °C 37.9 °F /  3.3 °C 46.3 °F /  7.9 °C
Dew Point: 49.9 °F /  9.9 °C 36.1 °F /  2.3 °C 42 °F /  5.6 °C
Humidity: 94% 71% 85%
Wind Speed: 21.9mph /  35.2km/h - 5.8mph /  9.3km/h
Wind Gust: 21.9mph /  35.2km/h - -
Wind- - SE
Pressure: 30.12 in /  1019.9 hPa 29.95 in /  1014.1 hPa -
Precipitation: 0.42 in /  10.67 mm    
Historical Graphs
 
 
Tabular Data for March 20, 2017
Time Temperature Dew Point Pressure Wind Wind Speed Wind Gust Humidity Rainfall Rate (Hourly) solar Conditions
00:00 45.4 °F /  7.4 °C 37.6 °F /  3.1 °C 30.12in /  1019.9hPa South 12.6mph /  20.3km/h 14.9mph /  24km/h 74% 0.00in /  0mm 0.00 W/m2
00:01 45.4 °F /  7.4 °C 37.6 °F /  3.1 °C 30.12in /  1019.9hPa South 12.6mph /  20.3km/h 14.9mph /  24km/h 74% 0.00in /  0mm 0.00 W/m2
00:05 45.5 °F /  7.5 °C 37.7 °F /  3.2 °C 30.12in /  1019.9hPa South 11.5mph /  18.5km/h 14.9mph /  24km/h 74% 0.00in /  0mm 0.00 W/m2
00:06 45.5 °F /  7.5 °C 37.7 °F /  3.2 °C 30.11in /  1019.5hPa South 11.5mph /  18.5km/h 11.5mph /  18.5km/h 74% 0.00in /  0mm 0.00 W/m2
00:10 45.5 °F /  7.5 °C 38.0 °F /  3.3 °C 30.11in /  1019.5hPa SSE 9.2mph /  14.8km/h 13.8mph /  22.2km/h 75% 0.00in /  0mm 0.00 W/m2
00:11 45.5 °F /  7.5 °C 38.0 °F /  3.3 °C 30.11in /  1019.5hPa SSE 10.3mph /  16.6km/h 10.3mph /  16.6km/h 75% 0.00in /  0mm 0.00 W/m2
00:15 45.5 °F /  7.5 °C 38.0 °F /  3.3 °C 30.11in /  1019.5hPa SSE 9.2mph /  14.8km/h 13.8mph /  22.2km/h 75% 0.00in /  0mm 0.00 W/m2
00:16 45.4 °F /  7.4 °C 38.0 °F /  3.3 °C 30.10in /  1019.2hPa SSE 12.6mph /  20.3km/h 12.6mph /  20.3km/h 75% 0.00in /  0mm 0.00 W/m2
00:20 45.5 °F /  7.5 °C 38.0 °F /  3.3 °C 30.11in /  1019.5hPa SSW 6.9mph /  11.1km/h 12.6mph /  20.3km/h 75% 0.00in /  0mm 0.00 W/m2
00:21 45.5 °F /  7.5 °C 38.0 °F /  3.3 °C 30.11in /  1019.5hPa South 8.1mph /  13km/h 8.1mph /  13km/h 75% 0.00in /  0mm 0.00 W/m2
00:25 45.7 °F /  7.6 °C 37.9 °F /  3.3 °C 30.10in /  1019.2hPa South 9.2mph /  14.8km/h 12.6mph /  20.3km/h 74% 0.00in /  0mm 0.00 W/m2
00:26 45.7 °F /  7.6 °C 37.9 °F /  3.3 °C 30.10in /  1019.2hPa SSW 10.3mph /  16.6km/h 11.5mph /  18.5km/h 74% 0.00in /  0mm 0.00 W/m2
00:30 46.0 °F /  7.8 °C 37.8 °F /  3.2 °C 30.10in /  1019.2hPa South 10.4mph /  16.7km/h 13.8mph /  22.2km/h 73% 0.00in /  0mm 0.00 W/m2
00:31 46.0 °F /  7.8 °C 37.8 °F /  3.2 °C 30.10in /  1019.2hPa SSE 10.3mph /  16.6km/h 11.5mph /  18.5km/h 73% 0.00in /  0mm 0.00 W/m2
00:35 46.3 °F /  7.9 °C 37.8 °F /  3.2 °C 30.09in /  1018.8hPa SSE 14.9mph /  24km/h 20.7mph /  33.3km/h 72% 0.00in /  0mm 0.00 W/m2
00:36 46.3 °F /  7.9 °C 37.8 °F /  3.2 °C 30.09in /  1018.8hPa SSE 10.3mph /  16.6km/h 14.9mph /  24km/h 72% 0.00in /  0mm 0.00 W/m2
00:40 46.3 °F /  7.9 °C 38.1 °F /  3.4 °C 30.09in /  1018.8hPa SSE 10.4mph /  16.7km/h 17.2mph /  27.7km/h 73% 0.00in /  0mm 0.00 W/m2
00:41 46.3 °F /  7.9 °C 38.1 °F /  3.4 °C 30.09in /  1018.8hPa SSE 9.2mph /  14.8km/h 11.5mph /  18.5km/h 73% 0.00in /  0mm 0.00 W/m2
00:45 46.3 °F /  7.9 °C 38.1 °F /  3.4 °C 30.09in /  1018.8hPa South 10.4mph /  16.7km/h 16.1mph /  25.9km/h 73% 0.00in /  0mm 0.00 W/m2
00:46 46.3 °F /  7.9 °C 38.1 °F /  3.4 °C 30.09in /  1018.8hPa South 10.3mph /  16.6km/h 11.5mph /  18.5km/h 73% 0.00in /  0mm 0.00 W/m2
00:50 46.3 °F /  7.9 °C 38.1 °F /  3.4 °C 30.08in /  1018.5hPa South 11.5mph /  18.5km/h 17.2mph /  27.7km/h 73% 0.00in /  0mm 0.00 W/m2
00:51 46.2 °F /  7.9 °C 38.0 °F /  3.3 °C 30.08in /  1018.5hPa SSE 5.8mph /  9.3km/h 11.5mph /  18.5km/h 73% 0.00in /  0mm 0.00 W/m2
00:55 46.1 °F /  7.8 °C 37.9 °F /  3.3 °C 30.08in /  1018.5hPa South 4.6mph /  7.4km/h 14.9mph /  24km/h 73% 0.00in /  0mm 0.00 W/m2
00:56 46.1 °F /  7.8 °C 37.9 °F /  3.3 °C 30.08in /  1018.5hPa SSE 8.1mph /  13km/h 9.2mph /  14.8km/h 73% 0.00in /  0mm 0.00 W/m2
01:00 46.1 °F /  7.8 °C 37.9 °F /  3.3 °C 30.07in /  1018.2hPa SSE 6.9mph /  11.1km/h 16.1mph /  25.9km/h 73% 0.00in /  0mm 0.00 W/m2
01:01 46.1 °F /  7.8 °C 37.9 °F /  3.3 °C 30.07in /  1018.2hPa SSE 8.1mph /  13km/h 10.3mph /  16.6km/h 73% 0.00in /  0mm 0.00 W/m2
01:05 46.1 °F /  7.8 °C 37.9 °F /  3.3 °C 30.07in /  1018.2hPa SSE 6.9mph /  11.1km/h 18.4mph /  29.6km/h 73% 0.00in /  0mm 0.00 W/m2
01:07 46.1 °F /  7.8 °C 37.6 °F /  3.1 °C 30.07in /  1018.2hPa SSE 3.4mph /  5.5km/h 6.9mph /  11.1km/h 72% 0.00in /  0mm 0.00 W/m2
01:10 46.0 °F /  7.8 °C 37.8 °F /  3.2 °C 30.07in /  1018.2hPa East 5.8mph /  9.3km/h 13.8mph /  22.2km/h 73% 0.00in /  0mm 0.00 W/m2
01:12 46.0 °F /  7.8 °C 37.8 °F /  3.2 °C 30.07in /  1018.2hPa South 10.3mph /  16.6km/h 12.6mph /  20.3km/h 73% 0.00in /  0mm 0.00 W/m2
01:15 46.0 °F /  7.8 °C 37.8 °F /  3.2 °C 30.07in /  1018.2hPa SSE 12.6mph /  20.3km/h 16.1mph /  25.9km/h 73% 0.00in /  0mm 0.00 W/m2
01:17 46.0 °F /  7.8 °C 37.8 °F /  3.2 °C 30.07in /  1018.2hPa SSE 6.9mph /  11.1km/h 12.6mph /  20.3km/h 73% 0.00in /  0mm 0.00 W/m2
01:20 46.1 °F /  7.8 °C 37.9 °F /  3.3 °C 30.07in /  1018.2hPa SSE 10.4mph /  16.7km/h 13.8mph /  22.2km/h 73% 0.00in /  0mm 0.00 W/m2
01:22 46.1 °F /  7.8 °C 37.9 °F /  3.3 °C 30.07in /  1018.2hPa SSE 6.9mph /  11.1km/h 12.6mph /  20.3km/h 73% 0.00in /  0mm 0.00 W/m2
01:25 46.1 °F /  7.8 °C 37.9 °F /  3.3 °C 30.06in /  1017.8hPa South 9.2mph /  14.8km/h 13.8mph /  22.2km/h 73% 0.00in /  0mm 0.00 W/m2
01:27 46.1 °F /  7.8 °C 37.9 °F /  3.3 °C 30.06in /  1017.8hPa SSE 8.1mph /  13km/h 9.2mph /  14.8km/h 73% 0.00in /  0mm 0.00 W/m2
01:30 46.1 °F /  7.8 °C 37.9 °F /  3.3 °C 30.06in /  1017.8hPa SSE 6.9mph /  11.1km/h 16.1mph /  25.9km/h 73% 0.00in /  0mm 0.00 W/m2
01:32 46.0 °F /  7.8 °C 37.8 °F /  3.2 °C 30.05in /  1017.5hPa SSE 8.1mph /  13km/h 11.5mph /  18.5km/h 73% 0.00in /  0mm 0.00 W/m2
01:35 46.0 °F /  7.8 °C 37.8 °F /  3.2 °C 30.05in /  1017.5hPa SSE 8.1mph /  13km/h 13.8mph /  22.2km/h 73% 0.00in /  0mm 0.00 W/m2
01:37 46.0 °F /  7.8 °C 37.8 °F /  3.2 °C 30.05in /  1017.5hPa South 8.1mph /  13km/h 12.6mph /  20.3km/h 73% 0.00in /  0mm 0.00 W/m2
01:40 45.8 °F /  7.7 °C 37.7 °F /  3.2 °C 30.05in /  1017.5hPa South 12.6mph /  20.3km/h 13.8mph /  22.2km/h 73% 0.00in /  0mm 0.00 W/m2
01:42 45.8 °F /  7.7 °C 37.7 °F /  3.2 °C 30.05in /  1017.5hPa South 11.5mph /  18.5km/h 12.6mph /  20.3km/h 73% 0.00in /  0mm 0.00 W/m2
01:45 45.8 °F /  7.7 °C 37.7 °F /  3.2 °C 30.04in /  1017.2hPa SE 9.2mph /  14.8km/h 14.9mph /  24km/h 73% 0.00in /  0mm 0.00 W/m2
01:47 45.8 °F /  7.7 °C 37.7 °F /  3.2 °C 30.04in /  1017.2hPa SE 9.2mph /  14.8km/h 11.5mph /  18.5km/h 73% 0.00in /  0mm 0.00 W/m2
01:50 45.9 °F /  7.7 °C 37.8 °F /  3.2 °C 30.04in /  1017.2hPa SE 9.2mph /  14.8km/h 16.1mph /  25.9km/h 73% 0.00in /  0mm 0.00 W/m2
01:52 45.9 °F /  7.7 °C 37.8 °F /  3.2 °C 30.04in /  1017.2hPa South 14.9mph /  24km/h 14.9mph /  24km/h 73% 0.00in /  0mm 0.00 W/m2
01:55 45.9 °F /  7.7 °C 38.1 °F /  3.4 °C 30.03in /  1016.8hPa South 8.1mph /  13km/h 18.4mph /  29.6km/h 74% 0.00in /  0mm 0.00 W/m2
01:57 46.0 °F /  7.8 °C 37.8 °F /  3.2 °C 30.04in /  1017.2hPa South 13.8mph /  22.2km/h 14.9mph /  24km/h 73% 0.00in /  0mm 0.00 W/m2
02:00 46.1 °F /  7.8 °C 37.9 °F /  3.3 °C 30.03in /  1016.8hPa SSE 12.6mph /  20.3km/h 17.2mph /  27.7km/h 73% 0.00in /  0mm 0.00 W/m2
02:02 46.1 °F /  7.8 °C 37.9 °F /  3.3 °C 30.03in /  1016.8hPa SSE 11.5mph /  18.5km/h 12.6mph /  20.3km/h 73% 0.00in /  0mm 0.00 W/m2
02:05 46.1 °F /  7.8 °C 37.9 °F /  3.3 °C 30.03in /  1016.8hPa South 11.5mph /  18.5km/h 17.2mph /  27.7km/h 73% 0.00in /  0mm 0.00 W/m2
02:07 46.1 °F /  7.8 °C 37.9 °F /  3.3 °C 30.03in /  1016.8hPa SSE 10.3mph /  16.6km/h 12.6mph /  20.3km/h 73% 0.00in /  0mm 0.00 W/m2
02:10 46.0 °F /  7.8 °C 37.8 °F /  3.2 °C 30.03in /  1016.8hPa South 12.6mph /  20.3km/h 17.2mph /  27.7km/h 73% 0.00in /  0mm 0.00 W/m2
02:12 46.0 °F /  7.8 °C 37.8 °F /  3.2 °C 30.03in /  1016.8hPa SSE 9.2mph /  14.8km/h 12.6mph /  20.3km/h 73% 0.00in /  0mm 0.00 W/m2
02:15 45.9 °F /  7.7 °C 37.8 °F /  3.2 °C 30.03in /  1016.8hPa SSE 11.5mph /  18.5km/h 14.9mph /  24km/h 73% 0.00in /  0mm 0.00 W/m2
02:17 45.9 °F /  7.7 °C 37.8 °F /  3.2 °C 30.02in /  1016.5hPa SSE 5.8mph /  9.3km/h 11.5mph /  18.5km/h 73% 0.00in /  0mm 0.00 W/m2
02:20 45.9 °F /  7.7 °C 37.8 °F /  3.2 °C 30.02in /  1016.5hPa SSE 17.2mph /  27.7km/h 17.2mph /  27.7km/h 73% 0.00in /  0mm 0.00 W/m2
02:22 45.9 °F /  7.7 °C 37.8 °F /  3.2 °C 30.02in /  1016.5hPa SSE 9.2mph /  14.8km/h 17.2mph /  27.7km/h 73% 0.00in /  0mm 0.00 W/m2
02:25 45.9 °F /  7.7 °C 37.8 °F /  3.2 °C 30.02in /  1016.5hPa SSE 4.6mph /  7.4km/h 17.2mph /  27.7km/h 73% 0.00in /  0mm 0.00 W/m2
02:27 45.9 °F /  7.7 °C 37.8 °F /  3.2 °C 30.01in /  1016.1hPa SSE 8.1mph /  13km/h 11.5mph /  18.5km/h 73% 0.00in /  0mm 0.00 W/m2
02:30 45.9 °F /  7.7 °C 37.8 °F /  3.2 °C 30.01in /  1016.1hPa SSE 9.2mph /  14.8km/h 17.2mph /  27.7km/h 73% 0.00in /  0mm 0.00 W/m2
02:32 45.9 °F /  7.7 °C 37.8 °F /  3.2 °C 30.01in /  1016.1hPa SSE 9.2mph /  14.8km/h 13.8mph /  22.2km/h 73% 0.00in /  0mm 0.00 W/m2
02:35 46.0 °F /  7.8 °C 37.8 °F /  3.2 °C 30.01in /  1016.1hPa SSE 8.1mph /  13km/h 14.9mph /  24km/h 73% 0.00in /  0mm 0.00 W/m2
02:37 46.1 °F /  7.8 °C 37.9 °F /  3.3 °C 30.02in /  1016.5hPa SSW 8.1mph /  13km/h 12.6mph /  20.3km/h 73% 0.00in /  0mm 0.00 W/m2
02:40 46.2 °F /  7.9 °C 38.0 °F /  3.3 °C 30.02in /  1016.5hPa South 11.5mph /  18.5km/h 13.8mph /  22.2km/h 73% 0.00in /  0mm 0.00 W/m2
02:42 46.1 °F /  7.8 °C 37.9 °F /  3.3 °C 30.01in /  1016.1hPa South 12.6mph /  20.3km/h 13.8mph /  22.2km/h 73% 0.00in /  0mm 0.00 W/m2
02:45 46.1 °F /  7.8 °C 37.9 °F /  3.3 °C 30.00in /  1015.8hPa South 8.1mph /  13km/h 13.8mph /  22.2km/h 73% 0.00in /  0mm 0.00 W/m2
02:47 46.1 °F /  7.8 °C 37.9 °F /  3.3 °C 30.00in /  1015.8hPa South 4.6mph /  7.4km/h 9.2mph /  14.8km/h 73% 0.00in /  0mm 0.00 W/m2
02:50 46.3 °F /  7.9 °C 38.1 °F /  3.4 °C 30.00in /  1015.8hPa SSE 10.4mph /  16.7km/h 10.4mph /  16.7km/h 73% 0.00in /  0mm 0.00 W/m2
02:52 46.3 °F /  7.9 °C 37.8 °F /  3.2 °C 30.00in /  1015.8hPa South 4.6mph /  7.4km/h 10.3mph /  16.6km/h 72% 0.00in /  0mm 0.00 W/m2
02:55 46.5 °F /  8.1 °C 38.3 °F /  3.5 °C 30.00in /  1015.8hPa South 5.8mph /  9.3km/h 11.5mph /  18.5km/h 73% 0.00in /  0mm 0.00 W/m2
02:57 46.5 °F /  8.1 °C 38.0 °F /  3.3 °C 30.00in /  1015.8hPa SSE 5.8mph /  9.3km/h 8.1mph /  13km/h 72% 0.00in /  0mm 0.00 W/m2
03:00 46.6 °F /  8.1 °C 38.1 °F /  3.4 °C 29.99in /  1015.5hPa SSE 6.9mph /  11.1km/h 11.5mph /  18.5km/h 72% 0.00in /  0mm 0.00 W/m2
03:05 46.9 °F /  8.3 °C 38.0 °F /  3.3 °C 30.00in /  1015.8hPa South 8.1mph /  13km/h 8.1mph /  13km/h 71% 0.00in /  0mm 0.00 W/m2
03:06 46.8 °F /  8.2 °C 38.3 °F /  3.5 °C 30.00in /  1015.8hPa SSE 1.1mph /  1.8km/h 1.1mph /  1.8km/h 72% 0.00in /  0mm 0.00 W/m2
03:10 47.1 °F /  8.4 °C 38.2 °F /  3.4 °C 30.04in /  1017.2hPa NW 9.2mph /  14.8km/h 10.4mph /  16.7km/h 71% 0.00in /  0mm 0.00 W/m2
03:11 47.1 °F /  8.4 °C 38.2 °F /  3.4 °C 30.04in /  1017.2hPa NW 9.2mph /  14.8km/h 10.3mph /  16.6km/h 71% 0.00in /  0mm 0.00 W/m2
03:18 47.2 °F /  8.4 °C 39.0 °F /  3.9 °C 30.05in /  1017.5hPa North 1.1mph /  1.8km/h 1.1mph /  1.8km/h 73% 0.00in /  0mm 0.00 W/m2
03:20 46.9 °F /  8.3 °C 40.1 °F /  4.5 °C 30.05in /  1017.5hPa North 4.6mph /  7.4km/h 8.1mph /  13km/h 77% 0.01in /  0.25mm 0.00 W/m2
03:23 46.5 °F /  8.1 °C 40.3 °F /  4.6 °C 30.05in /  1017.5hPa North 4.6mph /  7.4km/h 8.1mph /  13km/h 79% 0.01in /  0.25mm 0.00 W/m2
03:28 45.6 °F /  7.6 °C 40.4 °F /  4.7 °C 30.03in /  1016.8hPa Calm   1.1mph /  1.8km/h 82% 0.02in /  0.51mm 0.00 W/m2
03:30 45.3 °F /  7.4 °C 40.1 °F /  4.5 °C 30.02in /  1016.5hPa Calm   3.5mph /  5.6km/h 82% 0.02in /  0.51mm 0.00 W/m2
03:33 45.2 °F /  7.3 °C 40.3 °F /  4.6 °C 30.02in /  1016.5hPa ENE 2.3mph /  3.7km/h 3.4mph /  5.5km/h 83% 0.02in /  0.51mm 0.00 W/m2
03:35 44.9 °F /  7.2 °C 40.7 °F /  4.8 °C 30.03in /  1016.8hPa Calm   3.5mph /  5.6km/h 85% 0.03in /  0.76mm 0.00 W/m2
03:39 44.7 °F /  7.1 °C 40.8 °F /  4.9 °C 30.05in /  1017.5hPa Calm     86% 0.03in /  0.76mm 0.00 W/m2
03:40 44.6 °F /  7 °C 41.0 °F /  5 °C 30.06in /  1017.8hPa ENE 4.6mph /  7.4km/h 4.6mph /  7.4km/h 87% 0.03in /  0.76mm 0.00 W/m2
03:44 44.5 °F /  6.9 °C 41.2 °F /  5.1 °C 30.06in /  1017.8hPa NE 10.3mph /  16.6km/h 10.3mph /  16.6km/h 88% 0.04in /  1.02mm 0.00 W/m2
03:45 44.2 °F /  6.8 °C 40.6 °F /  4.8 °C 30.06in /  1017.8hPa North 8.1mph /  13km/h 10.4mph /  16.7km/h 87% 0.05in /  1.27mm 0.00 W/m2
03:50 43.6 °F /  6.4 °C 40.3 °F /  4.6 °C 30.07in /  1018.2hPa NNE 6.9mph /  11.1km/h 6.9mph /  11.1km/h 88% 0.06in /  1.52mm 0.00 W/m2
03:52 43.6 °F /  6.4 °C 40.3 °F /  4.6 °C 30.07in /  1018.2hPa NNE 6.9mph /  11.1km/h 6.9mph /  11.1km/h 88% 0.06in /  1.52mm 0.00 W/m2
03:55 43.4 °F /  6.3 °C 40.4 °F /  4.7 °C 30.07in /  1018.2hPa NE 5.8mph /  9.3km/h 10.4mph /  16.7km/h 89% 0.06in /  1.52mm 0.00 W/m2
03:57 43.3 °F /  6.3 °C 40.3 °F /  4.6 °C 30.08in /  1018.5hPa NNE 5.8mph /  9.3km/h 9.2mph /  14.8km/h 89% 0.06in /  1.52mm 0.00 W/m2
04:03 43.2 °F /  6.2 °C 40.5 °F /  4.7 °C 30.09in /  1018.8hPa NE 3.4mph /  5.5km/h 3.4mph /  5.5km/h 90% 0.00in /  0mm 0.00 W/m2
04:05 43.0 °F /  6.1 °C 40.3 °F /  4.6 °C 30.09in /  1018.8hPa NE 5.8mph /  9.3km/h 9.2mph /  14.8km/h 90% 0.13in /  3.3mm 0.00 W/m2
04:08 42.9 °F /  6.1 °C 40.5 °F /  4.7 °C 30.11in /  1019.5hPa NNW 2.3mph /  3.7km/h 5.8mph /  9.3km/h 91% 0.15in /  3.81mm 0.00 W/m2
04:10 42.8 °F /  6 °C 40.4 °F /  4.7 °C 30.11in /  1019.5hPa Calm   8.1mph /  13km/h 91% 0.16in /  4.06mm 0.00 W/m2
04:15 42.8 °F /  6 °C 40.6 °F /  4.8 °C 30.12in /  1019.9hPa North 4.6mph /  7.4km/h 4.6mph /  7.4km/h 92% 0.18in /  4.57mm 0.00 W/m2
04:20 42.7 °F /  5.9 °C 40.5 °F /  4.7 °C 30.09in /  1018.8hPa East 6.9mph /  11.1km/h 6.9mph /  11.1km/h 92% 0.20in /  5.08mm 0.00 W/m2
04:25 42.6 °F /  5.9 °C 40.4 °F /  4.7 °C 30.09in /  1018.8hPa East 3.5mph /  5.6km/h 3.5mph /  5.6km/h 92% 0.20in /  5.08mm 0.00 W/m2
04:26 42.6 °F /  5.9 °C 40.4 °F /  4.7 °C 30.09in /  1018.8hPa East 1.1mph /  1.8km/h 1.1mph /  1.8km/h 92% 0.20in /  5.08mm 0.00 W/m2
04:30 42.6 °F /  5.9 °C 40.7 °F /  4.8 °C 30.09in /  1018.8hPa East 3.5mph /  5.6km/h 3.5mph /  5.6km/h 93% 0.19in /  4.83mm 0.00 W/m2
04:31 42.6 °F /  5.9 °C 40.7 °F /  4.8 °C 30.09in /  1018.8hPa East 2.3mph /  3.7km/h 3.4mph /  5.5km/h 93% 0.19in /  4.83mm 0.00 W/m2
04:37 42.6 °F /  5.9 °C 40.7 °F /  4.8 °C 30.09in /  1018.8hPa ESE 2.3mph /  3.7km/h 2.3mph /  3.7km/h 93% 0.00in /  0mm 0.00 W/m2
04:40 42.5 °F /  5.8 °C 40.6 °F /  4.8 °C 30.08in /  1018.5hPa ESE 2.3mph /  3.7km/h 4.6mph /  7.4km/h 93% 0.22in /  5.59mm 0.00 W/m2
04:42 42.5 °F /  5.8 °C 40.6 °F /  4.8 °C 30.08in /  1018.5hPa ESE 4.6mph /  7.4km/h 4.6mph /  7.4km/h 93% 0.21in /  5.33mm 0.00 W/m2
04:48 42.5 °F /  5.8 °C 40.6 °F /  4.8 °C 30.08in /  1018.5hPa SE 5.8mph /  9.3km/h 5.8mph /  9.3km/h 93% 0.22in /  5.59mm 0.00 W/m2
04:50 42.6 °F /  5.9 °C 40.7 °F /  4.8 °C 30.09in /  1018.8hPa SE 5.8mph /  9.3km/h 11.5mph /  18.5km/h 93% 0.23in /  5.84mm 0.00 W/m2
04:53 42.6 °F /  5.9 °C 40.7 °F /  4.8 °C 30.08in /  1018.5hPa ESE 4.6mph /  7.4km/h 6.9mph /  11.1km/h 93% 0.21in /  5.33mm 0.00 W/m2
04:55 42.6 °F /  5.9 °C 40.7 °F /  4.8 °C 30.07in /  1018.2hPa ESE 5.8mph /  9.3km/h 10.4mph /  16.7km/h 93% 0.22in /  5.59mm 0.00 W/m2
05:00 42.5 °F /  5.8 °C 40.6 °F /  4.8 °C 30.06in /  1017.8hPa ESE 5.8mph /  9.3km/h 8.1mph /  13km/h 93% 0.23in /  5.84mm 0.00 W/m2
05:05 42.5 °F /  5.8 °C 40.6 °F /  4.8 °C 30.05in /  1017.5hPa SE 8.1mph /  13km/h 9.2mph /  14.8km/h 93% 0.17in /  4.32mm 0.00 W/m2
05:10 42.6 °F /  5.9 °C 41.0 °F /  5 °C 30.05in /  1017.5hPa SE 8.1mph /  13km/h 8.1mph /  13km/h 94% 0.19in /  4.83mm 0.00 W/m2
05:15 42.7 °F /  5.9 °C 41.1 °F /  5.1 °C 30.04in /  1017.2hPa SSE 6.9mph /  11.1km/h 12.6mph /  20.3km/h 94% 0.19in /  4.83mm 0.00 W/m2
05:16 42.7 °F /  5.9 °C 41.1 °F /  5.1 °C 30.04in /  1017.2hPa SSE 9.2mph /  14.8km/h 12.6mph /  20.3km/h 94% 0.19in /  4.83mm 0.00 W/m2
05:23 42.6 °F /  5.9 °C 41.0 °F /  5 °C 30.03in /  1016.8hPa South 10.3mph /  16.6km/h 11.5mph /  18.5km/h 94% 0.18in /  4.57mm 0.00 W/m2
05:25 42.5 °F /  5.8 °C 40.9 °F /  4.9 °C 30.01in /  1016.1hPa SE 12.6mph /  20.3km/h 18.4mph /  29.6km/h 94% 0.19in /  4.83mm 0.00 W/m2
05:28 42.5 °F /  5.8 °C 40.9 °F /  4.9 °C 29.99in /  1015.5hPa SE 12.6mph /  20.3km/h 13.8mph /  22.2km/h 94% 0.17in /  4.32mm 0.00 W/m2
05:30 42.5 °F /  5.8 °C 40.9 °F /  4.9 °C 29.97in /  1014.8hPa SE 21.9mph /  35.2km/h 21.9mph /  35.2km/h 94% 0.18in /  4.57mm 0.00 W/m2
05:33 42.5 °F /  5.8 °C 40.9 °F /  4.9 °C 29.96in /  1014.4hPa SSE 6.9mph /  11.1km/h 21.9mph /  35.2km/h 94% 0.19in /  4.83mm 0.00 W/m2
05:35 42.5 °F /  5.8 °C 40.9 °F /  4.9 °C 29.97in /  1014.8hPa SE 6.9mph /  11.1km/h 6.9mph /  11.1km/h 94% 0.19in /  4.83mm 0.00 W/m2
05:38 42.5 °F /  5.8 °C 40.9 °F /  4.9 °C 29.97in /  1014.8hPa ESE 11.5mph /  18.5km/h 16.1mph /  25.9km/h 94% 0.16in /  4.06mm 0.00 W/m2
05:40 42.5 °F /  5.8 °C 40.9 °F /  4.9 °C 29.97in /  1014.8hPa SW 4.6mph /  7.4km/h 16.1mph /  25.9km/h 94% 0.16in /  4.06mm 0.00 W/m2
05:43 42.5 °F /  5.8 °C 40.9 °F /  4.9 °C 29.98in /  1015.1hPa East 3.4mph /  5.5km/h 10.3mph /  16.6km/h 94% 0.16in /  4.06mm 0.00 W/m2
05:48 42.5 °F /  5.8 °C 40.9 °F /  4.9 °C 30.00in /  1015.8hPa East 5.8mph /  9.3km/h 5.8mph /  9.3km/h 94% 0.16in /  4.06mm 0.00 W/m2
05:50 42.6 °F /  5.9 °C 41.0 °F /  5 °C 30.00in /  1015.8hPa ESE 3.5mph /  5.6km/h 9.2mph /  14.8km/h 94% 0.16in /  4.06mm 0.00 W/m2
05:53 42.7 °F /  5.9 °C 41.1 °F /  5.1 °C 30.00in /  1015.8hPa East 5.8mph /  9.3km/h 11.5mph /  18.5km/h 94% 0.14in /  3.56mm 0.00 W/m2
05:55 42.8 °F /  6 °C 40.9 °F /  4.9 °C 30.01in /  1016.1hPa Calm   11.5mph /  18.5km/h 93% 0.14in /  3.56mm 0.00 W/m2
06:00 42.8 °F /  6 °C 40.9 °F /  4.9 °C 30.03in /  1016.8hPa SE 4.6mph /  7.4km/h 4.6mph /  7.4km/h 93% 0.12in /  3.05mm 0.00 W/m2
06:01 42.8 °F /  6 °C 40.9 °F /  4.9 °C 30.03in /  1016.8hPa ENE 3.4mph /  5.5km/h 3.4mph /  5.5km/h 93% 0.12in /  3.05mm 0.00 W/m2
06:05 42.7 °F /  5.9 °C 40.8 °F /  4.9 °C 30.03in /  1016.8hPa SSE 10.4mph /  16.7km/h 11.5mph /  18.5km/h 93% 0.11in /  2.79mm 0.00 W/m2
06:06 42.7 °F /  5.9 °C 40.8 °F /  4.9 °C 30.03in /  1016.8hPa South 8.1mph /  13km/h 11.5mph /  18.5km/h 93% 0.11in /  2.79mm 0.00 W/m2
06:13 43.5 °F /  6.4 °C 41.3 °F /  5.2 °C 30.03in /  1016.8hPa SE 9.2mph /  14.8km/h 11.5mph /  18.5km/h 92% 0.10in /  2.54mm 0.00 W/m2
06:14 43.5 °F /  6.4 °C 41.3 °F /  5.2 °C 30.03in /  1016.8hPa SSE 6.9mph /  11.1km/h 12.6mph /  20.3km/h 92% 0.10in /  2.54mm 0.00 W/m2
06:15 43.4 °F /  6.3 °C 41.2 °F /  5.1 °C 30.03in /  1016.8hPa East 2.3mph /  3.7km/h 12.6mph /  20.3km/h 92% 0.10in /  2.54mm 0.00 W/m2
06:19 43.4 °F /  6.3 °C 41.0 °F /  5 °C 30.01in /  1016.1hPa ESE 9.2mph /  14.8km/h 10.3mph /  16.6km/h 91% 0.05in /  1.27mm 0.00 W/m2
06:20 43.4 °F /  6.3 °C 41.0 °F /  5 °C 30.02in /  1016.5hPa East 8.1mph /  13km/h 11.5mph /  18.5km/h 91% 0.05in /  1.27mm 0.00 W/m2
06:25 43.4 °F /  6.3 °C 41.0 °F /  5 °C 30.03in /  1016.8hPa East 3.4mph /  5.5km/h 3.4mph /  5.5km/h 91% 0.02in /  0.51mm 0.00 W/m2
06:30 43.4 °F /  6.3 °C 41.0 °F /  5 °C 30.03in /  1016.8hPa SE 5.8mph /  9.3km/h 6.9mph /  11.1km/h 91% 0.02in /  0.51mm 0.00 W/m2
06:31 43.4 °F /  6.3 °C 41.0 °F /  5 °C 30.03in /  1016.8hPa SSE 5.8mph /  9.3km/h 6.9mph /  11.1km/h 91% 0.02in /  0.51mm 0.00 W/m2
06:35 43.1 °F /  6.2 °C 40.7 °F /  4.8 °C 30.01in /  1016.1hPa SE 8.1mph /  13km/h 8.1mph /  13km/h 91% 0.01in /  0.25mm 0.00 W/m2
06:37 43.1 °F /  6.2 °C 40.7 °F /  4.8 °C 30.01in /  1016.1hPa SE 8.1mph /  13km/h 8.1mph /  13km/h 91% 0.00in /  0mm 0.00 W/m2
06:40 43.2 °F /  6.2 °C 40.8 °F /  4.9 °C 30.01in /  1016.1hPa East 3.5mph /  5.6km/h 10.4mph /  16.7km/h 91% 0.00in /  0mm 0.00 W/m2
06:42 43.2 °F /  6.2 °C 40.8 °F /  4.9 °C 30.01in /  1016.1hPa ESE 3.4mph /  5.5km/h 5.8mph /  9.3km/h 91% 0.00in /  0mm 0.00 W/m2
06:48 42.8 °F /  6 °C 40.4 °F /  4.7 °C 30.01in /  1016.1hPa SE 8.1mph /  13km/h 8.1mph /  13km/h 91% 0.00in /  0mm 0.00 W/m2
06:50 42.8 °F /  6 °C 40.4 °F /  4.7 °C 30.00in /  1015.8hPa SE 6.9mph /  11.1km/h 9.2mph /  14.8km/h 91% 0.00in /  0mm 0.00 W/m2
06:53 42.7 °F /  5.9 °C 40.3 °F /  4.6 °C 30.01in /  1016.1hPa SSE 6.9mph /  11.1km/h 9.2mph /  14.8km/h 91% 0.00in /  0mm 0.00 W/m2
06:59 42.4 °F /  5.8 °C 40.2 °F /  4.6 °C 30.02in /  1016.5hPa SSE 10.3mph /  16.6km/h 10.3mph /  16.6km/h 92% 0.00in /  0mm 0.00 W/m2
07:00 42.5 °F /  5.8 °C 40.3 °F /  4.6 °C 30.02in /  1016.5hPa SSE 5.8mph /  9.3km/h 10.4mph /  16.7km/h 92% 0.00in /  0mm 0.00 W/m2
07:04 42.5 °F /  5.8 °C 40.3 °F /  4.6 °C 30.01in /  1016.1hPa SE 3.4mph /  5.5km/h 9.2mph /  14.8km/h 92% 0.00in /  0mm 5.00 W/m2
07:05 42.4 °F /  5.8 °C 40.2 °F /  4.6 °C 30.01in /  1016.1hPa SSE 9.2mph /  14.8km/h 9.2mph /  14.8km/h 92% 0.00in /  0mm 7.00 W/m2
07:10 42.6 °F /  5.9 °C 40.4 °F /  4.7 °C 30.02in /  1016.5hPa SSE 4.6mph /  7.4km/h 4.6mph /  7.4km/h 92% 0.00in /  0mm 9.00 W/m2
07:15 42.7 °F /  5.9 °C 40.5 °F /  4.7 °C 30.01in /  1016.1hPa SE 4.6mph /  7.4km/h 9.2mph /  14.8km/h 92% 0.00in /  0mm 12.00 W/m2
07:16 42.6 °F /  5.9 °C 40.4 °F /  4.7 °C 30.01in /  1016.1hPa SE 5.8mph /  9.3km/h 9.2mph /  14.8km/h 92% 0.00in /  0mm 12.00 W/m2
07:22 43.1 °F /  6.2 °C 40.9 °F /  4.9 °C 30.01in /  1016.1hPa SE 4.6mph /  7.4km/h 4.6mph /  7.4km/h 92% 0.00in /  0mm 16.00 W/m2
07:25 43.4 °F /  6.3 °C 41.0 °F /  5 °C 30.01in /  1016.1hPa SE 5.8mph /  9.3km/h 9.2mph /  14.8km/h 91% 0.00in /  0mm 18.00 W/m2
07:27 43.4 °F /  6.3 °C 41.0 °F /  5 °C 30.02in /  1016.5hPa SE 2.3mph /  3.7km/h 8.1mph /  13km/h 91% 0.00in /  0mm 16.00 W/m2
07:33 43.4 °F /  6.3 °C 41.0 °F /  5 °C 30.01in /  1016.1hPa SE 3.4mph /  5.5km/h 3.4mph /  5.5km/h 91% 0.00in /  0mm 25.00 W/m2
07:35 43.5 °F /  6.4 °C 41.0 °F /  5 °C 30.01in /  1016.1hPa SE 6.9mph /  11.1km/h 10.4mph /  16.7km/h 91% 0.00in /  0mm 30.00 W/m2
07:38 43.5 °F /  6.4 °C 41.0 °F /  5 °C 30.01in /  1016.1hPa SE 2.3mph /  3.7km/h 8.1mph /  13km/h 91% 0.00in /  0mm 30.00 W/m2
07:44 43.5 °F /  6.4 °C 41.0 °F /  5 °C 30.00in /  1015.8hPa ESE 4.6mph /  7.4km/h 4.6mph /  7.4km/h 91% 0.00in /  0mm 30.00 W/m2
07:45 43.5 °F /  6.4 °C 41.0 °F /  5 °C 30.01in /  1016.1hPa SE 6.9mph /  11.1km/h 10.4mph /  16.7km/h 91% 0.00in /  0mm 28.00 W/m2
07:49 43.5 °F /  6.4 °C 41.3 °F /  5.2 °C 30.00in /  1015.8hPa ESE 4.6mph /  7.4km/h 6.9mph /  11.1km/h 92% 0.00in /  0mm 33.00 W/m2
07:50 43.4 °F /  6.3 °C 41.2 °F /  5.1 °C 30.00in /  1015.8hPa ESE 8.1mph /  13km/h 11.5mph /  18.5km/h 92% 0.00in /  0mm 42.00 W/m2
07:55 43.3 °F /  6.3 °C 41.1 °F /  5.1 °C 30.01in /  1016.1hPa ESE 8.1mph /  13km/h 8.1mph /  13km/h 92% 0.00in /  0mm 44.00 W/m2
08:00 43.3 °F /  6.3 °C 41.1 °F /  5.1 °C 30.01in /  1016.1hPa SE 4.6mph /  7.4km/h 9.2mph /  14.8km/h 92% 0.00in /  0mm 46.00 W/m2
08:05 43.4 °F /  6.3 °C 41.2 °F /  5.1 °C 30.00in /  1015.8hPa SSE 3.5mph /  5.6km/h 3.5mph /  5.6km/h 92% 0.00in /  0mm 65.00 W/m2
08:06 43.4 °F /  6.3 °C 41.2 °F /  5.1 °C 30.00in /  1015.8hPa SSE 3.4mph /  5.5km/h 3.4mph /  5.5km/h 92% 0.00in /  0mm 65.00 W/m2
08:10 43.4 °F /  6.3 °C 41.5 °F /  5.3 °C 30.00in /  1015.8hPa ESE 13.8mph /  22.2km/h 13.8mph /  22.2km/h 93% 0.00in /  0mm 65.00 W/m2
08:11 43.4 °F /  6.3 °C 41.5 °F /  5.3 °C 30.00in /  1015.8hPa ESE 13.8mph /  22.2km/h 13.8mph /  22.2km/h 93% 0.00in /  0mm 65.00 W/m2
08:18 43.5 °F /  6.4 °C 41.3 °F /  5.2 °C 30.00in /  1015.8hPa ESE 9.2mph /  14.8km/h 9.2mph /  14.8km/h 92% 0.00in /  0mm 77.00 W/m2
08:20 43.6 °F /  6.4 °C 41.7 °F /  5.4 °C 30.00in /  1015.8hPa SE 5.8mph /  9.3km/h 10.4mph /  16.7km/h 93% 0.00in /  0mm 105.00 W/m2
08:23 43.6 °F /  6.4 °C 41.7 °F /  5.4 °C 30.00in /  1015.8hPa ESE 8.1mph /  13km/h 13.8mph /  22.2km/h 93% 0.00in /  0mm 105.00 W/m2
08:29 43.7 °F /  6.5 °C 41.5 °F /  5.3 °C 30.00in /  1015.8hPa SE 9.2mph /  14.8km/h 9.2mph /  14.8km/h 92% 0.00in /  0mm 149.00 W/m2
08:30 43.9 °F /  6.6 °C 42.0 °F /  5.6 °C 30.00in /  1015.8hPa SE 10.4mph /  16.7km/h 12.6mph /  20.3km/h 93% 0.00in /  0mm 185.00 W/m2
08:34 44.1 °F /  6.7 °C 42.2 °F /  5.7 °C 30.00in /  1015.8hPa SE 5.8mph /  9.3km/h 10.3mph /  16.6km/h 93% 0.00in /  0mm 213.00 W/m2
08:40 44.5 °F /  6.9 °C 42.3 °F /  5.7 °C 30.00in /  1015.8hPa ESE 8.1mph /  13km/h 8.1mph /  13km/h 92% 0.00in /  0mm 195.00 W/m2
08:45 44.7 °F /  7.1 °C 42.5 °F /  5.8 °C 29.99in /  1015.5hPa SE 6.9mph /  11.1km/h 13.8mph /  22.2km/h 92% 0.00in /  0mm 216.00 W/m2
08:50 45.0 °F /  7.2 °C 42.8 °F /  6 °C 30.00in /  1015.8hPa SSE 9.2mph /  14.8km/h 9.2mph /  14.8km/h 92% 0.00in /  0mm 283.00 W/m2
08:51 45.0 °F /  7.2 °C 42.8 °F /  6 °C 30.00in /  1015.8hPa SSE 9.2mph /  14.8km/h 9.2mph /  14.8km/h 92% 0.00in /  0mm 283.00 W/m2
08:55 45.4 °F /  7.4 °C 42.9 °F /  6.1 °C 30.00in /  1015.8hPa SSE 9.2mph /  14.8km/h 11.5mph /  18.5km/h 91% 0.00in /  0mm 313.00 W/m2
08:56 45.4 °F /  7.4 °C 42.9 °F /  6.1 °C 30.00in /  1015.8hPa East 9.2mph /  14.8km/h 11.5mph /  18.5km/h 91% 0.00in /  0mm 313.00 W/m2
09:02 45.9 °F /  7.7 °C 43.4 °F /  6.3 °C 29.99in /  1015.5hPa SE 10.3mph /  16.6km/h 10.3mph /  16.6km/h 91% 0.00in /  0mm 316.00 W/m2
09:05 46.0 °F /  7.8 °C 43.5 °F /  6.4 °C 29.99in /  1015.5hPa SE 8.1mph /  13km/h 14.9mph /  24km/h 91% 0.00in /  0mm 299.00 W/m2
09:07 46.0 °F /  7.8 °C 43.5 °F /  6.4 °C 29.99in /  1015.5hPa SE 2.3mph /  3.7km/h 9.2mph /  14.8km/h 91% 0.00in /  0mm 346.00 W/m2
09:13 46.6 °F /  8.1 °C 44.1 °F /  6.7 °C 29.99in /  1015.5hPa SE 6.9mph /  11.1km/h 6.9mph /  11.1km/h 91% 0.00in /  0mm 378.00 W/m2
09:15 46.7 °F /  8.2 °C 43.9 °F /  6.6 °C 29.99in /  1015.5hPa SE 10.4mph /  16.7km/h 11.5mph /  18.5km/h 90% 0.00in /  0mm 341.00 W/m2
09:18 46.8 °F /  8.2 °C 44.0 °F /  6.7 °C 30.00in /  1015.8hPa SE 6.9mph /  11.1km/h 13.8mph /  22.2km/h 90% 0.00in /  0mm 155.00 W/m2
09:25 46.2 °F /  7.9 °C 43.4 °F /  6.3 °C 29.99in /  1015.5hPa SE 5.8mph /  9.3km/h 5.8mph /  9.3km/h 90% 0.00in /  0mm 114.00 W/m2
09:30 46.0 °F /  7.8 °C 43.5 °F /  6.4 °C 29.99in /  1015.5hPa SE 10.3mph /  16.6km/h 13.8mph /  22.2km/h 91% 0.00in /  0mm 369.00 W/m2
09:35 46.7 °F /  8.2 °C 43.9 °F /  6.6 °C 30.00in /  1015.8hPa ESE 4.6mph /  7.4km/h 11.5mph /  18.5km/h 90% 0.00in /  0mm 236.00 W/m2
09:36 46.7 °F /  8.2 °C 43.9 °F /  6.6 °C 30.00in /  1015.8hPa ESE 10.3mph /  16.6km/h 10.3mph /  16.6km/h 90% 0.00in /  0mm 299.00 W/m2
09:40 46.9 °F /  8.3 °C 44.1 °F /  6.7 °C 29.99in /  1015.5hPa ESE 3.5mph /  5.6km/h 13.8mph /  22.2km/h 90% 0.00in /  0mm 172.00 W/m2
09:41 46.9 °F /  8.3 °C 44.1 °F /  6.7 °C 29.99in /  1015.5hPa ESE 4.6mph /  7.4km/h 13.8mph /  22.2km/h 90% 0.00in /  0mm 165.00 W/m2
09:45 46.5 °F /  8.1 °C 44.0 °F /  6.7 °C 30.00in /  1015.8hPa East 5.8mph /  9.3km/h 5.8mph /  9.3km/h 91% 0.00in /  0mm 258.00 W/m2
09:47 46.5 °F /  8.1 °C 44.0 °F /  6.7 °C 30.00in /  1015.8hPa East 5.8mph /  9.3km/h 5.8mph /  9.3km/h 91% 0.00in /  0mm 258.00 W/m2
09:50 46.8 °F /  8.2 °C 44.6 °F /  7 °C 30.00in /  1015.8hPa ESE 5.8mph /  9.3km/h 12.6mph /  20.3km/h 92% 0.00in /  0mm 522.00 W/m2
09:52 46.9 °F /  8.3 °C 44.7 °F /  7.1 °C 30.00in /  1015.8hPa SE 9.2mph /  14.8km/h 13.8mph /  22.2km/h 92% 0.00in /  0mm 475.00 W/m2
09:58 47.6 °F /  8.7 °C 45.4 °F /  7.4 °C 30.00in /  1015.8hPa SSE 3.4mph /  5.5km/h 3.4mph /  5.5km/h 92% 0.00in /  0mm 411.00 W/m2
10:00 48.1 °F /  8.9 °C 45.6 °F /  7.6 °C 30.01in /  1016.1hPa South 3.5mph /  5.6km/h 10.4mph /  16.7km/h 91% 0.00in /  0mm 220.00 W/m2
10:03 48.1 °F /  8.9 °C 45.6 °F /  7.6 °C 30.01in /  1016.1hPa ESE 5.8mph /  9.3km/h 8.1mph /  13km/h 91% 0.00in /  0mm 185.00 W/m2
10:09 47.8 °F /  8.8 °C 44.7 °F /  7.1 °C 30.00in /  1015.8hPa SSE 4.6mph /  7.4km/h 4.6mph /  7.4km/h 89% 0.00in /  0mm 102.00 W/m2
10:10 47.8 °F /  8.8 °C 45.0 °F /  7.2 °C 30.00in /  1015.8hPa ESE 3.5mph /  5.6km/h 9.2mph /  14.8km/h 90% 0.00in /  0mm 93.00 W/m2
10:14 47.7 °F /  8.7 °C 44.9 °F /  7.2 °C 30.00in /  1015.8hPa SSE 5.8mph /  9.3km/h 11.5mph /  18.5km/h 90% 0.00in /  0mm 77.00 W/m2
10:15 47.6 °F /  8.7 °C 44.5 °F /  6.9 °C 30.00in /  1015.8hPa SE 8.1mph /  13km/h 12.6mph /  20.3km/h 89% 0.00in /  0mm 69.00 W/m2
10:20 47.4 °F /  8.6 °C 44.3 °F /  6.8 °C 30.00in /  1015.8hPa ESE 5.8mph /  9.3km/h 5.8mph /  9.3km/h 89% 0.00in /  0mm 74.00 W/m2
10:25 47.3 °F /  8.5 °C 44.2 °F /  6.8 °C 30.00in /  1015.8hPa SSE 5.8mph /  9.3km/h 12.6mph /  20.3km/h 89% 0.00in /  0mm 88.00 W/m2
10:30 47.2 °F /  8.4 °C 44.4 °F /  6.9 °C 30.00in /  1015.8hPa ESE 10.4mph /  16.7km/h 10.4mph /  16.7km/h 90% 0.01in /  0.25mm 264.00 W/m2
10:31 47.2 °F /  8.4 °C 44.4 °F /  6.9 °C 30.00in /  1015.8hPa ESE 10.3mph /  16.6km/h 10.3mph /  16.6km/h 90% 0.01in /  0.25mm 264.00 W/m2
10:35 47.8 °F /  8.8 °C 45.3 °F /  7.4 °C 30.00in /  1015.8hPa SE 4.6mph /  7.4km/h 10.4mph /  16.7km/h 91% 0.02in /  0.51mm 181.00 W/m2
10:36 47.8 °F /  8.8 °C 45.3 °F /  7.4 °C 30.00in /  1015.8hPa ESE 4.6mph /  7.4km/h 5.8mph /  9.3km/h 91% 0.02in /  0.51mm 181.00 W/m2
10:43 49.1 °F /  9.5 °C 46.9 °F /  8.3 °C 30.00in /  1015.8hPa SE 6.9mph /  11.1km/h 6.9mph /  11.1km/h 92% 0.00in /  0mm 652.00 W/m2
10:45 50.2 °F /  10.1 °C 48.0 °F /  8.9 °C 30.00in /  1015.8hPa SSE 1.1mph /  1.8km/h 9.2mph /  14.8km/h 92% 0.02in /  0.51mm 631.00 W/m2
10:48 50.2 °F /  10.1 °C 47.4 °F /  8.6 °C 30.00in /  1015.8hPa NE 1.1mph /  1.8km/h 8.1mph /  13km/h 90% 0.02in /  0.51mm 461.00 W/m2
10:54 50.2 °F /  10.1 °C 47.1 °F /  8.4 °C 30.00in /  1015.8hPa South 11.5mph /  18.5km/h 11.5mph /  18.5km/h 89% 0.02in /  0.51mm 534.00 W/m2
10:55 50.4 °F /  10.2 °C 47.3 °F /  8.5 °C 30.00in /  1015.8hPa SE 2.3mph /  3.7km/h 11.5mph /  18.5km/h 89% 0.02in /  0.51mm 520.00 W/m2
10:57 50.4 °F /  10.2 °C 47.3 °F /  8.5 °C 30.00in /  1015.8hPa SSE 6.9mph /  11.1km/h 6.9mph /  11.1km/h 89% 0.02in /  0.51mm 439.00 W/m2
11:00 50.4 °F /  10.2 °C 47.0 °F /  8.3 °C 30.00in /  1015.8hPa SSE 9.2mph /  14.8km/h 12.6mph /  20.3km/h 88% 0.02in /  0.51mm 309.00 W/m2
11:05 50.7 °F /  10.4 °C 47.0 °F /  8.3 °C 30.00in /  1015.8hPa SE 10.3mph /  16.6km/h 10.3mph /  16.6km/h 87% 0.02in /  0.51mm 417.00 W/m2
11:10 51.2 °F /  10.7 °C 47.8 °F /  8.8 °C 29.99in /  1015.5hPa SE 5.8mph /  9.3km/h 10.3mph /  16.6km/h 88% 0.02in /  0.51mm 497.00 W/m2
11:15 51.0 °F /  10.6 °C 47.0 °F /  8.3 °C 29.99in /  1015.5hPa SSE 9.2mph /  14.8km/h 9.2mph /  14.8km/h 86% 0.02in /  0.51mm 244.00 W/m2
11:16 51.0 °F /  10.6 °C 47.0 °F /  8.3 °C 29.99in /  1015.5hPa SSE 9.2mph /  14.8km/h 9.2mph /  14.8km/h 86% 0.00in /  0mm 244.00 W/m2
11:20 51.1 °F /  10.6 °C 47.1 °F /  8.4 °C 29.99in /  1015.5hPa SE 9.2mph /  14.8km/h 11.5mph /  18.5km/h 86% 0.02in /  0.51mm 295.00 W/m2
11:21 51.1 °F /  10.6 °C 47.1 °F /  8.4 °C 29.99in /  1015.5hPa SE 3.4mph /  5.5km/h 11.5mph /  18.5km/h 86% 0.02in /  0.51mm 295.00 W/m2
11:27 51.8 °F /  11 °C 47.8 °F /  8.8 °C 29.99in /  1015.5hPa SSE 9.2mph /  14.8km/h 9.2mph /  14.8km/h 86% 0.00in /  0mm 265.00 W/m2
11:30 52.3 °F /  11.3 °C 48.2 °F /  9 °C 30.00in /  1015.8hPa SSE 5.8mph /  9.3km/h 13.8mph /  22.2km/h 86% 0.02in /  0.51mm 429.00 W/m2
11:32 52.5 °F /  11.4 °C 48.4 °F /  9.1 °C 30.01in /  1016.1hPa SSE 6.9mph /  11.1km/h 11.5mph /  18.5km/h 86% 0.01in /  0.25mm 364.00 W/m2
11:38 51.8 °F /  11 °C 47.1 °F /  8.4 °C 30.01in /  1016.1hPa East 5.8mph /  9.3km/h 5.8mph /  9.3km/h 84% 0.00in /  0mm 410.00 W/m2
11:43 52.5 °F /  11.4 °C 48.4 °F /  9.1 °C 30.00in /  1015.8hPa ESE 11.5mph /  18.5km/h 12.6mph /  20.3km/h 86% 0.00in /  0mm 396.00 W/m2
11:48 52.8 °F /  11.6 °C 48.4 °F /  9.1 °C 30.00in /  1015.8hPa South 9.2mph /  14.8km/h 10.3mph /  16.6km/h 85% 0.00in /  0mm 427.00 W/m2
11:53 52.8 °F /  11.6 °C 48.1 °F /  8.9 °C 30.00in /  1015.8hPa SSE 9.2mph /  14.8km/h 12.6mph /  20.3km/h 84% 0.00in /  0mm 304.00 W/m2
11:58 52.6 °F /  11.4 °C 47.9 °F /  8.8 °C 29.99in /  1015.5hPa SSE 9.2mph /  14.8km/h 9.2mph /  14.8km/h 84% 0.00in /  0mm 311.00 W/m2
12:03 52.7 °F /  11.5 °C 47.7 °F /  8.7 °C 29.99in /  1015.5hPa SSE 4.6mph /  7.4km/h 8.1mph /  13km/h 83% 0.00in /  0mm 410.00 W/m2
12:08 53.4 °F /  11.9 °C 48.4 °F /  9.1 °C 29.99in /  1015.5hPa SE 4.6mph /  7.4km/h 6.9mph /  11.1km/h 83% 0.00in /  0mm 424.00 W/m2
12:14 53.5 °F /  11.9 °C 48.2 °F /  9 °C 29.98in /  1015.1hPa SSE 8.1mph /  13km/h 10.3mph /  16.6km/h 82% 0.00in /  0mm 513.00 W/m2
12:19 53.7 °F /  12.1 °C 48.3 °F /  9.1 °C 29.99in /  1015.5hPa South 3.4mph /  5.5km/h 10.3mph /  16.6km/h 82% 0.00in /  0mm 411.00 W/m2
12:24 53.3 °F /  11.8 °C 47.3 °F /  8.5 °C 29.99in /  1015.5hPa SSE 2.3mph /  3.7km/h 6.9mph /  11.1km/h 80% 0.00in /  0mm 341.00 W/m2
12:29 53.5 °F /  11.9 °C 48.5 °F /  9.2 °C 29.99in /  1015.5hPa SSE 5.8mph /  9.3km/h 9.2mph /  14.8km/h 83% 0.00in /  0mm 410.00 W/m2
12:34 53.2 °F /  11.8 °C 47.5 °F /  8.6 °C 30.00in /  1015.8hPa SSE 5.8mph /  9.3km/h 6.9mph /  11.1km/h 81% 0.00in /  0mm 373.00 W/m2
12:39 53.4 °F /  11.9 °C 47.7 °F /  8.7 °C 30.00in /  1015.8hPa SSE 4.6mph /  7.4km/h 9.2mph /  14.8km/h 81% 0.00in /  0mm 330.00 W/m2
12:44 53.3 °F /  11.8 °C 47.6 °F /  8.7 °C 30.00in /  1015.8hPa SSE 6.9mph /  11.1km/h 10.3mph /  16.6km/h 81% 0.00in /  0mm 383.00 W/m2
12:49 53.6 °F /  12 °C 47.9 °F /  8.8 °C 29.99in /  1015.5hPa SSE 3.4mph /  5.5km/h 10.3mph /  16.6km/h 81% 0.00in /  0mm 388.00 W/m2
12:50 53.5 °F /  11.9 °C 47.8 °F /  8.8 °C 29.99in /  1015.5hPa SSE 4.6mph /  7.4km/h 10.3mph /  16.6km/h 81% 0.00in /  0mm 306.00 W/m2
12:55 53.0 °F /  11.7 °C 47.3 °F /  8.5 °C 29.98in /  1015.1hPa South 2.3mph /  3.7km/h 6.9mph /  11.1km/h 81% 0.00in /  0mm 197.00 W/m2
13:00 53.0 °F /  11.7 °C 47.7 °F /  8.7 °C 29.98in /  1015.1hPa South 4.6mph /  7.4km/h 8.1mph /  13km/h 82% 0.00in /  0mm 403.00 W/m2
13:05 53.4 °F /  11.9 °C 47.7 °F /  8.7 °C 29.97in /  1014.8hPa SSE 2.3mph /  3.7km/h 8.1mph /  13km/h 81% 0.00in /  0mm 267.00 W/m2
13:10 53.6 °F /  12 °C 47.6 °F /  8.7 °C 29.97in /  1014.8hPa South 2.3mph /  3.7km/h 5.8mph /  9.3km/h 80% 0.00in /  0mm 367.00 W/m2
13:15 53.8 °F /  12.1 °C 48.1 °F /  8.9 °C 29.97in /  1014.8hPa South 1.1mph /  1.8km/h 4.6mph /  7.4km/h 81% 0.00in /  0mm 329.00 W/m2
13:20 54.5 °F /  12.5 °C 48.5 °F /  9.2 °C 29.96in /  1014.4hPa South 2.3mph /  3.7km/h 5.8mph /  9.3km/h 80% 0.00in /  0mm 485.00 W/m2
13:25 54.2 °F /  12.3 °C 47.8 °F /  8.8 °C 29.96in /  1014.4hPa SSE 5.8mph /  9.3km/h 9.2mph /  14.8km/h 79% 0.00in /  0mm 422.00 W/m2
13:30 54.6 °F /  12.6 °C 48.2 °F /  9 °C 29.95in /  1014.1hPa SW 4.6mph /  7.4km/h 6.9mph /  11.1km/h 79% 0.00in /  0mm 455.00 W/m2
13:35 55.0 °F /  12.8 °C 49.9 °F /  9.9 °C 29.95in /  1014.1hPa SSE 3.4mph /  5.5km/h 5.8mph /  9.3km/h 83% 0.00in /  0mm 378.00 W/m2
13:40 54.9 °F /  12.7 °C 48.2 °F /  9 °C 29.96in /  1014.4hPa SSE 5.8mph /  9.3km/h 9.2mph /  14.8km/h 78% 0.00in /  0mm 339.00 W/m2
13:45 54.5 °F /  12.5 °C 48.8 °F /  9.3 °C 29.96in /  1014.4hPa SSE 3.4mph /  5.5km/h 6.9mph /  11.1km/h 81% 0.00in /  0mm 352.00 W/m2
13:50 54.5 °F /  12.5 °C 48.1 °F /  8.9 °C 29.96in /  1014.4hPa South 2.3mph /  3.7km/h 8.1mph /  13km/h 79% 0.00in /  0mm 330.00 W/m2
13:55 54.2 °F /  12.3 °C 47.5 °F /  8.6 °C 29.96in /  1014.4hPa WSW 1.1mph /  1.8km/h 5.8mph /  9.3km/h 78% 0.00in /  0mm 311.00 W/m2
14:00 54.1 °F /  12.3 °C 47.7 °F /  8.7 °C 29.95in /  1014.1hPa WSW 2.3mph /  3.7km/h 5.8mph /  9.3km/h 79% 0.00in /  0mm 218.00 W/m2
14:05 54.0 °F /  12.2 °C 47.3 °F /  8.5 °C 29.96in /  1014.4hPa SW 1.1mph /  1.8km/h 5.8mph /  9.3km/h 78% 0.00in /  0mm 137.00 W/m2
14:10 53.3 °F /  11.8 °C 47.0 °F /  8.3 °C 29.96in /  1014.4hPa West 1.1mph /  1.8km/h 4.6mph /  7.4km/h 79% 0.00in /  0mm 135.00 W/m2
14:15 53.3 °F /  11.8 °C 47.3 °F /  8.5 °C 29.96in /  1014.4hPa Calm   2.3mph /  3.7km/h 80% 0.00in /  0mm 127.00 W/m2
14:20 53.6 °F /  12 °C 48.6 °F /  9.2 °C 29.96in /  1014.4hPa Calm   2.3mph /  3.7km/h 83% 0.00in /  0mm 118.00 W/m2
14:25 53.4 °F /  11.9 °C 47.4 °F /  8.6 °C 29.96in /  1014.4hPa Calm   2.3mph /  3.7km/h 80% 0.00in /  0mm 139.00 W/m2
14:30 53.3 °F /  11.8 °C 48.0 °F /  8.9 °C 29.95in /  1014.1hPa Calm     82% 0.00in /  0mm 146.00 W/m2
14:35 53.4 °F /  11.9 °C 47.4 °F /  8.6 °C 29.95in /  1014.1hPa Calm     80% 0.00in /  0mm 130.00 W/m2
14:40 53.6 °F /  12 °C 47.6 °F /  8.7 °C 29.95in /  1014.1hPa Calm     80% 0.00in /  0mm 125.00 W/m2
14:45 53.6 °F /  12 °C 47.9 °F /  8.8 °C 29.95in /  1014.1hPa Calm     81% 0.00in /  0mm 134.00 W/m2
14:50 53.6 °F /  12 °C 47.9 °F /  8.8 °C 29.95in /  1014.1hPa Calm     81% 0.00in /  0mm 127.00 W/m2
14:56 53.8 °F /  12.1 °C 47.8 °F /  8.8 °C 29.95in /  1014.1hPa Calm     80% 0.00in /  0mm 135.00 W/m2
15:01 53.8 °F /  12.1 °C 47.8 °F /  8.8 °C 29.95in /  1014.1hPa Calm     80% 0.00in /  0mm 90.00 W/m2
15:06 53.8 °F /  12.1 °C 48.4 °F /  9.1 °C 29.95in /  1014.1hPa NNW 3.4mph /  5.5km/h 4.6mph /  7.4km/h 82% 0.00in /  0mm 70.00 W/m2
15:11 53.7 °F /  12.1 °C 48.3 °F /  9.1 °C 29.96in /  1014.4hPa NNW 1.1mph /  1.8km/h 4.6mph /  7.4km/h 82% 0.00in /  0mm 62.00 W/m2
15:16 53.6 °F /  12 °C 47.9 °F /  8.8 °C 29.96in /  1014.4hPa NNW 2.3mph /  3.7km/h 3.4mph /  5.5km/h 81% 0.00in /  0mm 58.00 W/m2
15:21 53.5 °F /  11.9 °C 48.2 °F /  9 °C 29.96in /  1014.4hPa NNW 1.1mph /  1.8km/h 2.3mph /  3.7km/h 82% 0.00in /  0mm 54.00 W/m2
15:26 53.4 °F /  11.9 °C 48.0 °F /  8.9 °C 29.96in /  1014.4hPa Calm   4.6mph /  7.4km/h 82% 0.00in /  0mm 58.00 W/m2
15:31 53.3 °F /  11.8 °C 48.3 °F /  9.1 °C 29.96in /  1014.4hPa Calm   4.6mph /  7.4km/h 83% 0.00in /  0mm 44.00 W/m2
15:36 53.2 °F /  11.8 °C 47.9 °F /  8.8 °C 29.96in /  1014.4hPa Calm   3.4mph /  5.5km/h 82% 0.00in /  0mm 44.00 W/m2
15:41 53.0 °F /  11.7 °C 48.0 °F /  8.9 °C 29.96in /  1014.4hPa Calm   5.8mph /  9.3km/h 83% 0.00in /  0mm 53.00 W/m2
15:46 53.0 °F /  11.7 °C 48.0 °F /  8.9 °C 29.96in /  1014.4hPa NNE 2.3mph /  3.7km/h 2.3mph /  3.7km/h 83% 0.00in /  0mm 51.00 W/m2
15:51 53.0 °F /  11.7 °C 48.3 °F /  9.1 °C 29.97in /  1014.8hPa NE 2.3mph /  3.7km/h 3.4mph /  5.5km/h 84% 0.00in /  0mm 47.00 W/m2
15:56 53.1 °F /  11.7 °C 48.7 °F /  9.3 °C 29.97in /  1014.8hPa NNW 10.3mph /  16.6km/h 10.3mph /  16.6km/h 85% 0.00in /  0mm 40.00 W/m2
16:01 52.9 °F /  11.6 °C 48.2 °F /  9 °C 29.97in /  1014.8hPa NE 4.6mph /  7.4km/h 5.8mph /  9.3km/h 84% 0.00in /  0mm 47.00 W/m2
16:06 52.7 °F /  11.5 °C 48.3 °F /  9.1 °C 29.98in /  1015.1hPa North 4.6mph /  7.4km/h 9.2mph /  14.8km/h 85% 0.00in /  0mm 47.00 W/m2
16:11 52.4 °F /  11.3 °C 47.7 °F /  8.7 °C 29.98in /  1015.1hPa ENE 2.3mph /  3.7km/h 2.3mph /  3.7km/h 84% 0.00in /  0mm 32.00 W/m2
16:16 51.8 °F /  11 °C 47.1 °F /  8.4 °C 29.98in /  1015.1hPa ENE 5.8mph /  9.3km/h 8.1mph /  13km/h 84% 0.00in /  0mm 47.00 W/m2
16:21 51.3 °F /  10.7 °C 47.0 °F /  8.3 °C 29.98in /  1015.1hPa NE 5.8mph /  9.3km/h 8.1mph /  13km/h 85% 0.00in /  0mm 44.00 W/m2
16:26 50.8 °F /  10.4 °C 46.2 °F /  7.9 °C 29.98in /  1015.1hPa NE 6.9mph /  11.1km/h 8.1mph /  13km/h 84% 0.00in /  0mm 53.00 W/m2
16:31 50.5 °F /  10.3 °C 45.8 °F /  7.7 °C 29.98in /  1015.1hPa NNE 2.3mph /  3.7km/h 3.4mph /  5.5km/h 84% 0.00in /  0mm 62.00 W/m2
16:36 50.5 °F /  10.3 °C 45.8 °F /  7.7 °C 29.98in /  1015.1hPa NE 5.8mph /  9.3km/h 8.1mph /  13km/h 84% 0.00in /  0mm 79.00 W/m2
16:41 50.5 °F /  10.3 °C 46.2 °F /  7.9 °C 29.98in /  1015.1hPa NE 4.6mph /  7.4km/h 4.6mph /  7.4km/h 85% 0.00in /  0mm 72.00 W/m2
16:46 50.4 °F /  10.2 °C 45.8 °F /  7.7 °C 29.98in /  1015.1hPa NNE 5.8mph /  9.3km/h 5.8mph /  9.3km/h 84% 0.00in /  0mm 72.00 W/m2
16:51 50.3 °F /  10.2 °C 45.7 °F /  7.6 °C 29.99in /  1015.5hPa NNE 6.9mph /  11.1km/h 13.8mph /  22.2km/h 84% 0.00in /  0mm 53.00 W/m2
16:56 50.1 °F /  10.1 °C 45.2 °F /  7.3 °C 29.99in /  1015.5hPa ENE 5.8mph /  9.3km/h 9.2mph /  14.8km/h 83% 0.00in /  0mm 46.00 W/m2
17:02 49.9 °F /  9.9 °C 45.0 °F /  7.2 °C 29.99in /  1015.5hPa NE 3.4mph /  5.5km/h 3.4mph /  5.5km/h 83% 0.00in /  0mm 53.00 W/m2
17:07 49.7 °F /  9.8 °C 45.1 °F /  7.3 °C 29.99in /  1015.5hPa NE 8.1mph /  13km/h 10.3mph /  16.6km/h 84% 0.00in /  0mm 62.00 W/m2
17:12 49.6 °F /  9.8 °C 45.0 °F /  7.2 °C 29.99in /  1015.5hPa NNE 6.9mph /  11.1km/h 9.2mph /  14.8km/h 84% 0.00in /  0mm 54.00 W/m2
17:17 49.6 °F /  9.8 °C 45.0 °F /  7.2 °C 30.00in /  1015.8hPa NE 6.9mph /  11.1km/h 8.1mph /  13km/h 84% 0.00in /  0mm 51.00 W/m2
17:22 49.4 °F /  9.7 °C 44.8 °F /  7.1 °C 30.00in /  1015.8hPa NNE 6.9mph /  11.1km/h 8.1mph /  13km/h 84% 0.00in /  0mm 46.00 W/m2
17:27 49.5 °F /  9.7 °C 45.2 °F /  7.3 °C 30.00in /  1015.8hPa North 5.8mph /  9.3km/h 8.1mph /  13km/h 85% 0.00in /  0mm 44.00 W/m2
17:32 49.2 °F /  9.6 °C 44.6 °F /  7 °C 30.01in /  1016.1hPa NE 6.9mph /  11.1km/h 12.6mph /  20.3km/h 84% 0.00in /  0mm 39.00 W/m2
17:37 49.1 °F /  9.5 °C 44.2 °F /  6.8 °C 30.01in /  1016.1hPa North 9.2mph /  14.8km/h 9.2mph /  14.8km/h 83% 0.00in /  0mm 42.00 W/m2
17:42 48.9 °F /  9.4 °C 44.0 °F /  6.7 °C 30.01in /  1016.1hPa NE 5.8mph /  9.3km/h 8.1mph /  13km/h 83% 0.00in /  0mm 35.00 W/m2
17:47 48.9 °F /  9.4 °C 44.3 °F /  6.8 °C 30.01in /  1016.1hPa NNE 1.1mph /  1.8km/h 6.9mph /  11.1km/h 84% 0.00in /  0mm 30.00 W/m2
17:52 48.8 °F /  9.3 °C 44.2 °F /  6.8 °C 30.01in /  1016.1hPa NNE 3.4mph /  5.5km/h 4.6mph /  7.4km/h 84% 0.00in /  0mm 18.00 W/m2
17:57 48.5 °F /  9.2 °C 43.9 °F /  6.6 °C 30.02in /  1016.5hPa NNE 6.9mph /  11.1km/h 8.1mph /  13km/h 84% 0.00in /  0mm 9.00 W/m2
18:02 48.3 °F /  9.1 °C 44.0 °F /  6.7 °C 30.02in /  1016.5hPa NNE 5.8mph /  9.3km/h 6.9mph /  11.1km/h 85% 0.00in /  0mm 9.00 W/m2
18:07 47.9 °F /  8.8 °C 43.6 °F /  6.4 °C 30.02in /  1016.5hPa North 5.8mph /  9.3km/h 8.1mph /  13km/h 85% 0.00in /  0mm 9.00 W/m2
18:13 47.5 °F /  8.6 °C 43.2 °F /  6.2 °C 30.03in /  1016.8hPa North 4.6mph /  7.4km/h 10.3mph /  16.6km/h 85% 0.00in /  0mm 9.00 W/m2
18:18 47.2 °F /  8.4 °C 42.9 °F /  6.1 °C 30.03in /  1016.8hPa NNE 2.3mph /  3.7km/h 8.1mph /  13km/h 85% 0.00in /  0mm 9.00 W/m2
18:23 47.0 °F /  8.3 °C 43.0 °F /  6.1 °C 30.03in /  1016.8hPa NNE 5.8mph /  9.3km/h 9.2mph /  14.8km/h 86% 0.00in /  0mm 7.00 W/m2
18:28 46.7 °F /  8.2 °C 43.3 °F /  6.3 °C 30.03in /  1016.8hPa North 6.9mph /  11.1km/h 12.6mph /  20.3km/h 88% 0.00in /  0mm 11.00 W/m2
18:33 46.1 °F /  7.8 °C 43.0 °F /  6.1 °C 30.04in /  1017.2hPa Calm   11.5mph /  18.5km/h 89% 0.00in /  0mm 12.00 W/m2
18:38 45.9 °F /  7.7 °C 43.1 °F /  6.2 °C 30.04in /  1017.2hPa North 9.2mph /  14.8km/h 9.2mph /  14.8km/h 90% 0.00in /  0mm 12.00 W/m2
18:43 45.8 °F /  7.7 °C 42.8 °F /  6 °C 30.04in /  1017.2hPa NNE 3.4mph /  5.5km/h 10.3mph /  16.6km/h 89% 0.00in /  0mm 9.00 W/m2
18:48 45.8 °F /  7.7 °C 42.8 °F /  6 °C 30.04in /  1017.2hPa NNE 4.6mph /  7.4km/h 9.2mph /  14.8km/h 89% 0.00in /  0mm 5.00 W/m2
18:53 45.8 °F /  7.7 °C 42.8 °F /  6 °C 30.04in /  1017.2hPa NNE 5.8mph /  9.3km/h 8.1mph /  13km/h 89% 0.00in /  0mm 0.00 W/m2
18:58 45.8 °F /  7.7 °C 42.8 °F /  6 °C 30.04in /  1017.2hPa NE 3.4mph /  5.5km/h 8.1mph /  13km/h 89% 0.00in /  0mm 0.00 W/m2
19:03 45.7 °F /  7.6 °C 42.7 °F /  5.9 °C 30.04in /  1017.2hPa NNE 4.6mph /  7.4km/h 9.2mph /  14.8km/h 89% 0.00in /  0mm 0.00 W/m2
19:08 45.7 °F /  7.6 °C 42.7 °F /  5.9 °C 30.05in /  1017.5hPa NNE 3.4mph /  5.5km/h 6.9mph /  11.1km/h 89% 0.00in /  0mm 0.00 W/m2
19:13 45.6 °F /  7.6 °C 42.5 °F /  5.8 °C 30.05in /  1017.5hPa NE 6.9mph /  11.1km/h 6.9mph /  11.1km/h 89% 0.00in /  0mm 0.00 W/m2
19:18 45.6 °F /  7.6 °C 42.5 °F /  5.8 °C 30.05in /  1017.5hPa NNE 6.9mph /  11.1km/h 10.3mph /  16.6km/h 89% 0.00in /  0mm 0.00 W/m2
19:19 45.5 °F /  7.5 °C 42.5 °F /  5.8 °C 30.05in /  1017.5hPa Calm   10.3mph /  16.6km/h 89% 0.00in /  0mm 0.00 W/m2
19:24 45.5 °F /  7.5 °C 42.5 °F /  5.8 °C 30.06in /  1017.8hPa NNE 3.4mph /  5.5km/h 8.1mph /  13km/h 89% 0.00in /  0mm 0.00 W/m2
19:29 45.5 °F /  7.5 °C 42.5 °F /  5.8 °C 30.07in /  1018.2hPa NNE 2.3mph /  3.7km/h 9.2mph /  14.8km/h 89% 0.00in /  0mm 0.00 W/m2
19:34 45.5 °F /  7.5 °C 42.5 °F /  5.8 °C 30.06in /  1017.8hPa North 5.8mph /  9.3km/h 6.9mph /  11.1km/h 89% 0.00in /  0mm 0.00 W/m2
19:39 45.4 °F /  7.4 °C 42.3 °F /  5.7 °C 30.07in /  1018.2hPa NNE 4.6mph /  7.4km/h 6.9mph /  11.1km/h 89% 0.00in /  0mm 0.00 W/m2
19:44 45.4 °F /  7.4 °C 42.3 °F /  5.7 °C 30.07in /  1018.2hPa North 2.3mph /  3.7km/h 8.1mph /  13km/h 89% 0.00in /  0mm 0.00 W/m2
19:49 45.4 °F /  7.4 °C 42.3 °F /  5.7 °C 30.06in /  1017.8hPa North 9.2mph /  14.8km/h 9.2mph /  14.8km/h 89% 0.00in /  0mm 0.00 W/m2
19:55 45.3 °F /  7.4 °C 42.3 °F /  5.7 °C 30.07in /  1018.2hPa North 5.8mph /  9.3km/h 9.2mph /  14.8km/h 89% 0.00in /  0mm 0.00 W/m2
20:00 45.2 °F /  7.3 °C 42.2 °F /  5.7 °C 30.06in /  1017.8hPa NNE 3.4mph /  5.5km/h 12.6mph /  20.3km/h 89% 0.00in /  0mm 0.00 W/m2
20:05 45.0 °F /  7.2 °C 42.0 °F /  5.6 °C 30.06in /  1017.8hPa NNE 6.9mph /  11.1km/h 9.2mph /  14.8km/h 89% 0.00in /  0mm 0.00 W/m2
20:10 44.8 °F /  7.1 °C 41.5 °F /  5.3 °C 30.06in /  1017.8hPa Calm   6.9mph /  11.1km/h 88% 0.00in /  0mm 0.00 W/m2
20:15 44.5 °F /  6.9 °C 41.5 °F /  5.3 °C 30.06in /  1017.8hPa NNE 1.1mph /  1.8km/h 5.8mph /  9.3km/h 89% 0.00in /  0mm 0.00 W/m2
20:20 44.2 °F /  6.8 °C 41.2 °F /  5.1 °C 30.06in /  1017.8hPa Calm   8.1mph /  13km/h 89% 0.00in /  0mm 0.00 W/m2
20:25 44.0 °F /  6.7 °C 41.0 °F /  5 °C 30.06in /  1017.8hPa NE 3.4mph /  5.5km/h 6.9mph /  11.1km/h 89% 0.00in /  0mm 0.00 W/m2
20:30 43.8 °F /  6.6 °C 40.8 °F /  4.9 °C 30.06in /  1017.8hPa NE 4.6mph /  7.4km/h 8.1mph /  13km/h 89% 0.00in /  0mm 0.00 W/m2
20:35 43.7 °F /  6.5 °C 40.7 °F /  4.8 °C 30.06in /  1017.8hPa NNE 1.1mph /  1.8km/h 10.3mph /  16.6km/h 89% 0.00in /  0mm 0.00 W/m2
20:40 43.4 °F /  6.3 °C 40.7 °F /  4.8 °C 30.06in /  1017.8hPa NNE 4.6mph /  7.4km/h 8.1mph /  13km/h 90% 0.00in /  0mm 0.00 W/m2
20:45 43.1 °F /  6.2 °C 40.4 °F /  4.7 °C 30.06in /  1017.8hPa NNE 4.6mph /  7.4km/h 9.2mph /  14.8km/h 90% 0.00in /  0mm 0.00 W/m2
20:50 43.0 °F /  6.1 °C 40.3 °F /  4.6 °C 30.07in /  1018.2hPa Calm   9.2mph /  14.8km/h 90% 0.00in /  0mm 0.00 W/m2
20:55 42.8 °F /  6 °C 40.1 °F /  4.5 °C 30.07in /  1018.2hPa NNE 2.3mph /  3.7km/h 5.8mph /  9.3km/h 90% 0.00in /  0mm 0.00 W/m2
21:00 42.5 °F /  5.8 °C 39.8 °F /  4.3 °C 30.07in /  1018.2hPa NE 5.8mph /  9.3km/h 6.9mph /  11.1km/h 90% 0.00in /  0mm 0.00 W/m2
21:05 42.3 °F /  5.7 °C 39.6 °F /  4.2 °C 30.06in /  1017.8hPa NE 2.3mph /  3.7km/h 4.6mph /  7.4km/h 90% 0.00in /  0mm 0.00 W/m2
21:10 42.1 °F /  5.6 °C 39.7 °F /  4.3 °C 30.07in /  1018.2hPa NNE 4.6mph /  7.4km/h 5.8mph /  9.3km/h 91% 0.00in /  0mm 0.00 W/m2
21:15 41.9 °F /  5.5 °C 39.5 °F /  4.2 °C 30.08in /  1018.5hPa North 3.4mph /  5.5km/h 6.9mph /  11.1km/h 91% 0.00in /  0mm 0.00 W/m2
21:20 41.8 °F /  5.4 °C 39.4 °F /  4.1 °C 30.08in /  1018.5hPa North 4.6mph /  7.4km/h 6.9mph /  11.1km/h 91% 0.00in /  0mm 0.00 W/m2
21:25 42.0 °F /  5.6 °C 39.8 °F /  4.3 °C 30.08in /  1018.5hPa NNW 1.1mph /  1.8km/h 8.1mph /  13km/h 92% 0.00in /  0mm 0.00 W/m2
21:30 42.1 °F /  5.6 °C 39.7 °F /  4.3 °C 30.08in /  1018.5hPa North 1.1mph /  1.8km/h 6.9mph /  11.1km/h 91% 0.00in /  0mm 0.00 W/m2
21:35 42.0 °F /  5.6 °C 39.6 °F /  4.2 °C 30.08in /  1018.5hPa NNW 3.4mph /  5.5km/h 5.8mph /  9.3km/h 91% 0.00in /  0mm 0.00 W/m2
21:40 41.8 °F /  5.4 °C 39.4 °F /  4.1 °C 30.08in /  1018.5hPa NNW 4.6mph /  7.4km/h 5.8mph /  9.3km/h 91% 0.00in /  0mm 0.00 W/m2
21:45 41.4 °F /  5.2 °C 39.0 °F /  3.9 °C 30.07in /  1018.2hPa NNE 4.6mph /  7.4km/h 8.1mph /  13km/h 91% 0.00in /  0mm 0.00 W/m2
21:50 41.3 °F /  5.2 °C 39.2 °F /  4 °C 30.08in /  1018.5hPa North 4.6mph /  7.4km/h 10.3mph /  16.6km/h 92% 0.00in /  0mm 0.00 W/m2
21:55 41.4 °F /  5.2 °C 39.2 °F /  4 °C 30.08in /  1018.5hPa NNE 5.8mph /  9.3km/h 9.2mph /  14.8km/h 92% 0.00in /  0mm 0.00 W/m2
22:00 41.6 °F /  5.3 °C 39.2 °F /  4 °C 30.08in /  1018.5hPa NE 5.8mph /  9.3km/h 13.8mph /  22.2km/h 91% 0.00in /  0mm 0.00 W/m2
22:05 41.5 °F /  5.3 °C 39.1 °F /  3.9 °C 30.08in /  1018.5hPa North 3.4mph /  5.5km/h 9.2mph /  14.8km/h 91% 0.00in /  0mm 0.00 W/m2
22:10 41.3 °F /  5.2 °C 38.9 °F /  3.8 °C 30.08in /  1018.5hPa Calm   8.1mph /  13km/h 91% 0.00in /  0mm 0.00 W/m2
22:15 41.0 °F /  5 °C 38.6 °F /  3.7 °C 30.08in /  1018.5hPa NNE 1.1mph /  1.8km/h 5.8mph /  9.3km/h 91% 0.00in /  0mm 0.00 W/m2
22:20 40.9 °F /  4.9 °C 38.5 °F /  3.6 °C 30.09in /  1018.8hPa NNE 1.1mph /  1.8km/h 3.4mph /  5.5km/h 91% 0.00in /  0mm 0.00 W/m2
22:25 40.8 °F /  4.9 °C 38.4 °F /  3.6 °C 30.09in /  1018.8hPa NNE 4.6mph /  7.4km/h 5.8mph /  9.3km/h 91% 0.00in /  0mm 0.00 W/m2
22:30 40.7 °F /  4.8 °C 38.3 °F /  3.5 °C 30.10in /  1019.2hPa Calm   4.6mph /  7.4km/h 91% 0.00in /  0mm 0.00 W/m2
22:35 40.7 °F /  4.8 °C 38.3 °F /  3.5 °C 30.10in /  1019.2hPa NNE 2.3mph /  3.7km/h 4.6mph /  7.4km/h 91% 0.00in /  0mm 0.00 W/m2
22:40 40.6 °F /  4.8 °C 38.2 °F /  3.4 °C 30.11in /  1019.5hPa Calm   5.8mph /  9.3km/h 91% 0.00in /  0mm 0.00 W/m2
22:45 40.3 °F /  4.6 °C 37.9 °F /  3.3 °C 30.11in /  1019.5hPa NNE 3.4mph /  5.5km/h 4.6mph /  7.4km/h 91% 0.00in /  0mm 0.00 W/m2
22:51 40.1 °F /  4.5 °C 38.0 °F /  3.3 °C 30.11in /  1019.5hPa Calm   4.6mph /  7.4km/h 92% 0.00in /  0mm 0.00 W/m2
22:56 39.9 °F /  4.4 °C 37.8 °F /  3.2 °C 30.11in /  1019.5hPa Calm   3.4mph /  5.5km/h 92% 0.00in /  0mm 0.00 W/m2
23:01 39.7 °F /  4.3 °C 37.6 °F /  3.1 °C 30.10in /  1019.2hPa NNE 2.3mph /  3.7km/h 4.6mph /  7.4km/h 92% 0.00in /  0mm 0.00 W/m2
23:06 39.6 °F /  4.2 °C 37.5 °F /  3.1 °C 30.11in /  1019.5hPa NNE 2.3mph /  3.7km/h 4.6mph /  7.4km/h 92% 0.00in /  0mm 0.00 W/m2
23:11 39.5 °F /  4.2 °C 37.4 °F /  3 °C 30.11in /  1019.5hPa NNE 3.4mph /  5.5km/h 6.9mph /  11.1km/h 92% 0.00in /  0mm 0.00 W/m2
23:16 39.6 °F /  4.2 °C 37.5 °F /  3.1 °C 30.11in /  1019.5hPa North 3.4mph /  5.5km/h 4.6mph /  7.4km/h 92% 0.00in /  0mm 0.00 W/m2
23:21 39.4 °F /  4.1 °C 37.3 °F /  2.9 °C 30.11in /  1019.5hPa North 3.4mph /  5.5km/h 4.6mph /  7.4km/h 92% 0.00in /  0mm 0.00 W/m2
23:26 39.1 °F /  3.9 °C 37.0 °F /  2.8 °C 30.11in /  1019.5hPa Calm   4.6mph /  7.4km/h 92% 0.00in /  0mm 0.00 W/m2
23:31 38.9 °F /  3.8 °C 36.8 °F /  2.7 °C 30.11in /  1019.5hPa North 2.3mph /  3.7km/h 2.3mph /  3.7km/h 92% 0.00in /  0mm 0.00 W/m2
23:36 38.6 °F /  3.7 °C 36.5 °F /  2.5 °C 30.11in /  1019.5hPa North 2.3mph /  3.7km/h 3.4mph /  5.5km/h 92% 0.00in /  0mm 0.00 W/m2
23:41 38.4 °F /  3.6 °C 36.6 °F /  2.6 °C 30.11in /  1019.5hPa North 2.3mph /  3.7km/h 3.4mph /  5.5km/h 93% 0.00in /  0mm 0.00 W/m2
23:46 38.3 °F /  3.5 °C 36.5 °F /  2.5 °C 30.11in /  1019.5hPa Calm   3.4mph /  5.5km/h 93% 0.00in /  0mm 0.00 W/m2
23:51 38.2 °F /  3.4 °C 36.4 °F /  2.4 °C 30.11in /  1019.5hPa Calm     93% 0.00in /  0mm 0.00 W/m2
23:56 37.9 °F /  3.3 °C 36.1 °F /  2.3 °C 30.11in /  1019.5hPa Calm   1.1mph /  1.8km/h 93% 0.00in /  0mm 0.00 W/m2
peotoneweather.com
Compliments of Weather Underground - 2 mb